createdAt,value
2023-03-12T00:00:17.363Z,0.50
2023-03-12T00:02:44.433Z,0.40
2023-03-12T00:05:11.586Z,0.40
2023-03-12T00:07:39.385Z,0.50
2023-03-12T00:10:07.136Z,0.40
2023-03-12T00:12:33.946Z,0.40
2023-03-12T00:15:01.360Z,0.30
2023-03-12T00:17:29.536Z,0.30
2023-03-12T00:19:56.626Z,0.30
2023-03-12T00:22:23.492Z,0.30
2023-03-12T00:24:55.365Z,0.30
2023-03-12T00:27:23.754Z,0.20
2023-03-12T00:29:50.556Z,0.20
2023-03-12T00:32:17.652Z,0.20
2023-03-12T00:34:44.784Z,0.30
2023-03-12T00:37:12.248Z,0.20
2023-03-12T00:39:39.072Z,0.20
2023-03-12T00:42:06.265Z,0.20
2023-03-12T00:44:33.062Z,0.20
2023-03-12T00:46:59.934Z,0.10
2023-03-12T00:49:27.240Z,0.10
2023-03-12T00:51:54.437Z,0.10
2023-03-12T00:54:21.619Z,0.00
2023-03-12T00:56:49.067Z,0.00
2023-03-12T00:59:15.979Z,0.00
2023-03-12T01:01:43.667Z,0.00
2023-03-12T01:04:11.109Z,0.00
2023-03-12T01:06:38.690Z,0.00
2023-03-12T01:09:08.085Z,-0.10
2023-03-12T01:11:35.736Z,0.00
2023-03-12T01:14:06.088Z,-0.10
2023-03-12T01:16:33.547Z,-0.20
2023-03-12T01:19:02.036Z,-0.20
2023-03-12T01:21:30.387Z,-0.20
2023-03-12T01:23:59.096Z,-0.20
2023-03-12T01:26:26.230Z,-0.20
2023-03-12T01:28:53.745Z,-0.20
2023-03-12T01:31:21.050Z,-0.30
2023-03-12T01:33:52.570Z,-0.20
2023-03-12T01:36:25.711Z,-0.20
2023-03-12T01:38:54.828Z,-0.20
2023-03-12T01:41:24.419Z,-0.30
2023-03-12T01:43:51.454Z,-0.30
2023-03-12T01:46:21.201Z,-0.40
2023-03-12T01:48:58.123Z,-0.50
2023-03-12T01:51:28.314Z,-0.50
2023-03-12T01:53:59.561Z,-0.50
2023-03-12T01:56:30.557Z,-0.50
2023-03-12T01:59:02.756Z,-0.50
2023-03-12T02:01:30.832Z,-0.50
2023-03-12T02:04:00.051Z,-0.50
2023-03-12T02:06:58.136Z,-0.60
2023-03-12T02:09:25.892Z,-0.60
2023-03-12T02:11:53.116Z,-0.50
2023-03-12T02:14:20.173Z,-0.50
2023-03-12T02:16:47.047Z,-0.40
2023-03-12T02:19:48.968Z,-0.30
2023-03-12T02:22:16.481Z,-0.30
2023-03-12T02:25:19.872Z,-0.30
2023-03-12T02:27:47.060Z,-0.40
2023-03-12T02:30:16.109Z,-0.30
2023-03-12T02:32:45.659Z,-0.30
2023-03-12T02:35:14.897Z,-0.40
2023-03-12T02:37:52.640Z,-0.60
2023-03-12T02:40:31.635Z,-0.60
2023-03-12T02:42:58.699Z,-0.60
2023-03-12T02:45:26.513Z,-0.70
2023-03-12T02:47:54.577Z,-0.70
2023-03-12T02:50:21.879Z,-0.70
2023-03-12T02:52:48.697Z,-0.70
2023-03-12T02:55:15.600Z,-0.70
2023-03-12T02:57:43.842Z,-0.70
2023-03-12T03:00:14.918Z,-0.70
2023-03-12T03:02:42.700Z,-0.70
2023-03-12T03:05:11.275Z,-0.70
2023-03-12T03:07:38.731Z,-0.70
2023-03-12T03:10:06.598Z,-0.70
2023-03-12T03:12:37.310Z,-0.60
2023-03-12T03:15:05.098Z,-0.60
2023-03-12T03:17:32.232Z,-0.60
2023-03-12T03:19:59.026Z,-0.60
2023-03-12T03:22:25.865Z,-0.60
2023-03-12T03:24:54.517Z,-0.60
2023-03-12T03:27:21.433Z,-0.60
2023-03-12T03:32:15.131Z,-0.60
2023-03-12T03:34:42.058Z,-0.50
2023-03-12T03:37:09.143Z,-0.40
2023-03-12T03:39:36.198Z,-0.50
2023-03-12T03:42:02.985Z,-0.40
2023-03-12T03:44:30.544Z,-0.40
2023-03-12T03:46:57.577Z,-0.40
2023-03-12T03:49:24.468Z,-0.40
2023-03-12T03:51:53.994Z,-0.40
2023-03-12T03:54:21.056Z,-0.40
2023-03-12T03:56:47.802Z,-0.30
2023-03-12T03:59:14.568Z,-0.20
2023-03-12T04:01:41.572Z,-0.20
2023-03-12T04:04:08.396Z,-0.20
2023-03-12T04:06:35.774Z,-0.20
2023-03-12T04:09:03.117Z,-0.10
2023-03-12T04:11:30.233Z,-0.20
2023-03-12T04:13:58.053Z,-0.10
2023-03-12T04:16:25.599Z,-0.20
2023-03-12T04:18:52.561Z,-0.20
2023-03-12T04:21:19.893Z,-0.20
2023-03-12T04:23:46.900Z,-0.20
2023-03-12T04:26:14.033Z,-0.20
2023-03-12T04:28:40.897Z,-0.20
2023-03-12T04:31:09.121Z,-0.10
2023-03-12T04:33:38.689Z,-0.10
2023-03-12T04:36:06.366Z,-0.10
2023-03-12T04:38:33.689Z,0.00
2023-03-12T04:41:02.997Z,0.00
2023-03-12T04:43:31.144Z,0.10
2023-03-12T04:45:58.854Z,0.10
2023-03-12T04:48:26.392Z,0.30
2023-03-12T04:50:53.503Z,0.60
2023-03-12T04:53:20.708Z,0.70
2023-03-12T04:55:47.760Z,0.90
2023-03-12T04:58:14.741Z,0.90
2023-03-12T05:00:42.145Z,1.00
2023-03-12T05:03:09.403Z,1.00
2023-03-12T05:05:36.520Z,1.10
2023-03-12T05:08:04.800Z,1.10
2023-03-12T05:10:31.837Z,1.10
2023-03-12T05:12:58.722Z,1.20
2023-03-12T05:15:25.702Z,1.20
2023-03-12T05:17:54.284Z,1.30
2023-03-12T05:20:21.858Z,1.20
2023-03-12T05:22:48.983Z,1.30
2023-03-12T05:25:15.778Z,1.30
2023-03-12T05:27:42.601Z,1.30
2023-03-12T05:30:10.268Z,1.30
2023-03-12T05:32:37.074Z,1.40
2023-03-12T05:35:04.076Z,1.40
2023-03-12T05:37:31.183Z,1.40
2023-03-12T05:39:58.073Z,1.30
2023-03-12T05:42:25.288Z,1.40
2023-03-12T05:44:52.973Z,1.40
2023-03-12T05:47:19.772Z,1.50
2023-03-12T05:49:47.772Z,1.50
2023-03-12T05:52:14.718Z,1.50
2023-03-12T05:54:41.469Z,1.60
2023-03-12T05:57:08.304Z,1.60
2023-03-12T05:59:35.322Z,1.60
2023-03-12T06:02:02.726Z,1.70
2023-03-12T06:04:30.140Z,1.60
2023-03-12T06:06:57.057Z,1.70
2023-03-12T06:09:23.990Z,1.60
2023-03-12T06:11:50.937Z,1.60
2023-03-12T06:14:17.951Z,1.60
2023-03-12T06:16:44.845Z,1.60
2023-03-12T06:19:14.237Z,1.60
2023-03-12T06:21:43.518Z,1.70
2023-03-12T06:24:10.431Z,1.70
2023-03-12T06:26:37.364Z,1.70
2023-03-12T06:29:04.359Z,1.80
2023-03-12T06:31:31.316Z,1.80
2023-03-12T06:33:58.227Z,1.80
2023-03-12T06:36:25.672Z,1.80
2023-03-12T06:38:52.542Z,1.90
2023-03-12T06:41:20.966Z,1.90
2023-03-12T06:43:48.256Z,1.90
2023-03-12T06:46:18.228Z,2.00
2023-03-12T06:48:46.518Z,2.00
2023-03-12T06:51:15.833Z,2.00
2023-03-12T06:53:43.074Z,2.10
2023-03-12T06:56:10.467Z,2.10
2023-03-12T06:58:37.443Z,2.20
2023-03-12T07:01:04.467Z,2.20
2023-03-12T07:03:31.346Z,2.30
2023-03-12T07:06:01.201Z,2.30
2023-03-12T07:08:30.951Z,2.30
2023-03-12T07:11:02.221Z,2.40
2023-03-12T07:13:30.485Z,2.30
2023-03-12T07:15:57.568Z,2.30
2023-03-12T07:18:24.566Z,2.40
2023-03-12T07:20:53.012Z,2.30
2023-03-12T07:23:20.052Z,2.40
2023-03-12T07:25:48.135Z,2.50
2023-03-12T07:28:15.826Z,2.40
2023-03-12T07:30:42.918Z,2.60
2023-03-12T07:33:12.330Z,2.60
2023-03-12T07:35:40.220Z,2.60
2023-03-12T07:38:08.295Z,2.50
2023-03-12T07:40:35.839Z,2.60
2023-03-12T07:43:05.722Z,2.50
2023-03-12T07:45:32.813Z,2.50
2023-03-12T07:47:59.656Z,2.50
2023-03-12T07:50:26.673Z,2.60
2023-03-12T07:52:53.432Z,2.60
2023-03-12T07:55:20.389Z,2.60
2023-03-12T07:57:47.776Z,2.60
2023-03-12T08:00:15.360Z,2.70
2023-03-12T08:02:42.398Z,2.70
2023-03-12T08:05:10.537Z,2.70
2023-03-12T08:07:37.396Z,2.90
2023-03-12T08:10:07.140Z,3.10
2023-03-12T08:12:34.587Z,3.20
2023-03-12T08:15:01.511Z,3.10
2023-03-12T08:17:28.265Z,3.00
2023-03-12T08:19:55.407Z,3.00
2023-03-12T08:22:22.220Z,3.10
2023-03-12T08:24:49.353Z,3.20
2023-03-12T08:27:16.388Z,3.30
2023-03-12T08:29:43.360Z,3.20
2023-03-12T08:32:10.924Z,3.20
2023-03-12T08:34:38.196Z,3.30
2023-03-12T08:37:06.226Z,3.30
2023-03-12T08:39:33.526Z,3.50
2023-03-12T08:42:00.859Z,3.60
2023-03-12T08:44:27.936Z,3.50
2023-03-12T08:46:54.798Z,3.70
2023-03-12T08:49:22.802Z,3.70
2023-03-12T08:51:51.882Z,3.50
2023-03-12T08:54:20.673Z,3.50
2023-03-12T08:56:52.244Z,3.50
2023-03-12T08:59:23.561Z,3.30
2023-03-12T09:01:50.562Z,3.40
2023-03-12T09:04:17.653Z,3.30
2023-03-12T09:06:44.623Z,3.30
2023-03-12T09:09:11.593Z,3.20
2023-03-12T09:11:42.640Z,3.20
2023-03-12T09:16:58.352Z,3.00
2023-03-12T09:19:25.662Z,2.80
2023-03-12T09:21:52.432Z,2.70
2023-03-12T09:24:19.991Z,3.00
2023-03-12T09:26:48.106Z,3.10
2023-03-12T09:29:14.862Z,3.10
2023-03-12T09:31:41.982Z,2.70
2023-03-12T09:34:08.770Z,2.60
2023-03-12T09:36:35.939Z,2.80
2023-03-12T09:39:03.408Z,2.80
2023-03-12T09:41:34.458Z,2.80
2023-03-12T09:44:23.001Z,2.90
2023-03-12T09:47:33.069Z,2.90
2023-03-12T09:50:17.438Z,2.80
2023-03-12T09:53:29.932Z,2.70
2023-03-12T09:55:58.580Z,2.80
2023-03-12T09:58:28.394Z,2.90
2023-03-12T10:01:01.192Z,3.00
2023-03-12T10:03:56.460Z,2.80
2023-03-12T10:06:29.864Z,2.90
2023-03-12T10:09:06.865Z,2.60
2023-03-12T10:11:42.397Z,2.60
2023-03-12T10:14:33.891Z,2.40
2023-03-12T10:17:30.016Z,2.30
2023-03-12T10:20:09.494Z,2.40
2023-03-12T10:22:49.309Z,2.10
2023-03-12T10:25:19.127Z,2.30
2023-03-12T10:27:46.450Z,2.40
2023-03-12T10:30:33.337Z,2.60
2023-03-12T10:33:04.440Z,2.80
2023-03-12T10:35:31.863Z,2.80
2023-03-12T10:38:01.372Z,2.80
2023-03-12T10:40:31.406Z,2.60
2023-03-12T10:42:58.446Z,2.70
2023-03-12T10:45:57.125Z,2.90
2023-03-12T10:48:25.839Z,2.50
2023-03-12T10:51:13.020Z,2.80
2023-03-12T10:53:47.785Z,3.00
2023-03-12T10:56:17.547Z,2.90
2023-03-12T10:58:47.106Z,2.90
2023-03-12T11:01:31.051Z,3.00
2023-03-12T11:04:16.105Z,2.70
2023-03-12T11:06:43.136Z,2.80
2023-03-12T11:09:16.558Z,3.00
2023-03-12T11:11:47.397Z,3.10
2023-03-12T11:14:21.751Z,2.90
2023-03-12T11:16:49.325Z,3.00
2023-03-12T11:19:37.198Z,3.20
2023-03-12T11:22:08.212Z,3.20
2023-03-12T11:24:35.944Z,3.20
2023-03-12T11:27:03.148Z,3.30
2023-03-12T11:29:40.296Z,3.40
2023-03-12T11:32:16.891Z,3.20
2023-03-12T11:34:47.821Z,3.20
2023-03-12T11:37:27.338Z,3.30
2023-03-12T11:40:12.337Z,3.20
2023-03-12T11:42:51.986Z,3.40
2023-03-12T11:45:46.537Z,3.60
2023-03-12T11:48:39.378Z,3.40
2023-03-12T11:51:37.653Z,3.50
2023-03-12T11:54:25.750Z,3.40
2023-03-12T11:57:18.682Z,3.60
2023-03-12T12:00:12.262Z,3.70
2023-03-12T12:02:45.254Z,3.90
2023-03-12T12:05:40.188Z,3.70
2023-03-12T12:08:57.542Z,3.50
2023-03-12T12:11:48.783Z,3.50
2023-03-12T12:14:45.329Z,3.50
2023-03-12T12:17:37.077Z,3.60
2023-03-12T12:20:18.068Z,3.60
2023-03-12T12:23:17.486Z,3.80
2023-03-12T12:26:08.780Z,3.90
2023-03-12T12:28:54.000Z,4.00
2023-03-12T12:31:53.196Z,4.20
2023-03-12T12:34:45.521Z,4.20
2023-03-12T12:37:18.633Z,4.20
2023-03-12T12:40:17.228Z,4.30
2023-03-12T12:43:14.781Z,4.20
2023-03-12T12:45:42.824Z,4.10
2023-03-12T12:48:29.378Z,4.20
2023-03-12T12:51:00.125Z,4.20
2023-03-12T12:53:40.139Z,4.20
2023-03-12T12:56:25.334Z,4.30
2023-03-12T12:59:03.617Z,4.40
2023-03-12T13:01:32.870Z,4.40
2023-03-12T13:04:26.083Z,4.60
2023-03-12T13:07:22.040Z,4.60
2023-03-12T13:09:57.147Z,4.70
2023-03-12T13:12:51.689Z,4.80
2023-03-12T13:15:30.848Z,4.80
2023-03-12T13:18:05.460Z,4.70
2023-03-12T13:20:52.824Z,4.80
2023-03-12T13:23:32.087Z,4.90
2023-03-12T13:26:20.964Z,4.90
2023-03-12T13:29:02.723Z,5.00
2023-03-12T13:31:38.649Z,5.00
2023-03-12T13:34:17.840Z,5.10
2023-03-12T13:36:46.852Z,5.10
2023-03-12T13:39:16.741Z,5.10
2023-03-12T13:41:47.689Z,5.10
2023-03-12T13:44:23.520Z,5.20
2023-03-12T13:47:03.078Z,5.30
2023-03-12T13:49:43.728Z,5.30
2023-03-12T13:52:22.792Z,5.40
2023-03-12T13:55:16.118Z,5.40
2023-03-12T13:57:47.477Z,5.40
2023-03-12T14:00:36.220Z,5.40
2023-03-12T14:03:24.906Z,5.50
2023-03-12T14:05:59.539Z,5.60
2023-03-12T14:08:42.864Z,5.60
2023-03-12T14:11:30.757Z,5.70
2023-03-12T14:14:24.912Z,5.70
2023-03-12T14:16:55.795Z,5.70
2023-03-12T14:19:29.129Z,5.70
2023-03-12T14:22:00.275Z,5.80
2023-03-12T14:24:34.865Z,5.80
2023-03-12T14:27:04.676Z,5.90
2023-03-12T14:29:39.145Z,5.90
2023-03-12T14:32:14.187Z,5.90
2023-03-12T14:34:46.413Z,5.90
2023-03-12T14:37:22.474Z,6.00
2023-03-12T14:39:50.915Z,6.00
2023-03-12T14:42:26.447Z,6.00
2023-03-12T14:45:03.964Z,6.10
2023-03-12T14:47:31.571Z,6.20
2023-03-12T14:49:58.582Z,6.30
2023-03-12T14:52:30.010Z,6.40
2023-03-12T14:55:01.354Z,6.40
2023-03-12T14:57:28.563Z,6.50
2023-03-12T14:59:58.637Z,6.60
2023-03-12T15:02:26.684Z,6.60
2023-03-12T15:04:56.533Z,6.80
2023-03-12T15:07:41.751Z,6.80
2023-03-12T15:10:23.170Z,6.80
2023-03-12T15:12:52.412Z,7.00
2023-03-12T15:15:36.166Z,7.00
2023-03-12T15:18:15.515Z,7.10
2023-03-12T15:20:43.816Z,7.20
2023-03-12T15:23:14.212Z,7.30
2023-03-12T15:25:42.776Z,7.30
2023-03-12T15:28:15.741Z,7.20
2023-03-12T15:30:44.770Z,7.20
2023-03-12T15:33:19.090Z,7.20
2023-03-12T15:36:15.221Z,7.30
2023-03-12T15:38:48.058Z,7.40
2023-03-12T15:41:49.025Z,7.40
2023-03-12T15:44:20.741Z,7.40
2023-03-12T15:46:50.638Z,7.50
2023-03-12T15:49:38.159Z,7.50
2023-03-12T15:52:27.347Z,7.60
2023-03-12T15:55:05.006Z,7.60
2023-03-12T15:57:34.489Z,7.60
2023-03-12T16:00:13.942Z,7.60
2023-03-12T16:02:48.218Z,7.60
2023-03-12T16:05:15.082Z,7.60
2023-03-12T16:07:42.155Z,7.70
2023-03-12T16:10:15.239Z,7.60
2023-03-12T16:12:43.328Z,7.70
2023-03-12T16:15:26.819Z,7.70
2023-03-12T16:17:53.683Z,7.70
2023-03-12T16:20:20.638Z,7.70
2023-03-12T16:22:47.721Z,7.70
2023-03-12T16:25:14.651Z,7.70
2023-03-12T16:27:49.521Z,7.80
2023-03-12T16:30:27.999Z,7.80
2023-03-12T16:32:55.953Z,7.80
2023-03-12T16:35:23.361Z,7.80
2023-03-12T16:37:50.305Z,7.80
2023-03-12T16:40:30.939Z,7.80
2023-03-12T16:43:03.369Z,7.80
2023-03-12T16:45:32.469Z,7.80
2023-03-12T16:48:02.076Z,7.80
2023-03-12T16:50:29.433Z,7.80
2023-03-12T16:52:56.738Z,7.90
2023-03-12T16:55:30.134Z,7.90
2023-03-12T16:58:01.219Z,7.90
2023-03-12T17:00:30.554Z,7.90
2023-03-12T17:02:59.026Z,7.90
2023-03-12T17:05:30.753Z,8.00
2023-03-12T17:07:59.449Z,8.00
2023-03-12T17:10:26.726Z,8.10
2023-03-12T17:12:54.103Z,7.90
2023-03-12T17:15:26.002Z,8.00
2023-03-12T17:17:55.801Z,7.90
2023-03-12T17:20:24.463Z,7.90
2023-03-12T17:22:51.509Z,7.90
2023-03-12T17:25:25.803Z,7.90
2023-03-12T17:27:53.011Z,7.80
2023-03-12T17:30:22.043Z,7.80
2023-03-12T17:32:50.253Z,7.80
2023-03-12T17:35:18.896Z,7.80
2023-03-12T17:37:48.432Z,7.80
2023-03-12T17:40:18.037Z,7.90
2023-03-12T17:42:45.001Z,7.90
2023-03-12T17:45:12.177Z,7.90
2023-03-12T17:47:39.953Z,7.80
2023-03-12T17:50:08.539Z,7.80
2023-03-12T17:52:35.481Z,7.80
2023-03-12T17:55:03.465Z,7.80
2023-03-12T17:57:30.423Z,7.80
2023-03-12T17:59:57.266Z,7.90
2023-03-12T18:02:24.969Z,7.90
2023-03-12T18:04:51.926Z,8.00
2023-03-12T18:07:18.863Z,7.90
2023-03-12T18:09:46.041Z,8.00
2023-03-12T18:12:13.289Z,8.00
2023-03-12T18:14:40.116Z,8.10
2023-03-12T18:17:07.445Z,8.10
2023-03-12T18:19:35.540Z,8.10
2023-03-12T18:22:02.656Z,8.20
2023-03-12T18:24:29.897Z,8.20
2023-03-12T18:26:57.112Z,8.20
2023-03-12T18:29:23.847Z,8.10
2023-03-12T18:31:50.863Z,8.10
2023-03-12T18:34:19.015Z,8.10
2023-03-12T18:36:46.215Z,8.00
2023-03-12T18:39:13.262Z,8.00
2023-03-12T18:41:41.960Z,8.00
2023-03-12T18:44:09.133Z,8.10
2023-03-12T18:46:39.461Z,8.10
2023-03-12T18:49:07.858Z,8.10
2023-03-12T18:51:35.473Z,8.10
2023-03-12T18:54:02.898Z,8.10
2023-03-12T18:56:30.197Z,8.10
2023-03-12T18:58:57.053Z,8.00
2023-03-12T19:01:24.729Z,8.10
2023-03-12T19:03:51.952Z,8.10
2023-03-12T19:06:18.867Z,8.10
2023-03-12T19:08:45.886Z,8.10
2023-03-12T19:11:15.012Z,8.00
2023-03-12T19:13:42.847Z,8.10
2023-03-12T19:16:12.428Z,8.20
2023-03-12T19:18:39.955Z,8.20
2023-03-12T19:21:09.892Z,8.20
2023-03-12T19:23:37.068Z,8.20
2023-03-12T19:26:04.928Z,8.20
2023-03-12T19:28:32.449Z,8.10
2023-03-12T19:31:05.094Z,8.10
2023-03-12T19:33:33.743Z,8.10
2023-03-12T19:36:04.187Z,8.10
2023-03-12T19:38:31.319Z,8.10
2023-03-12T19:40:58.730Z,8.00
2023-03-12T19:43:26.368Z,8.00
2023-03-12T19:45:55.518Z,8.10
2023-03-12T19:48:25.489Z,8.10
2023-03-12T19:51:11.145Z,8.10
2023-03-12T19:53:38.945Z,8.20
2023-03-12T19:56:06.946Z,8.20
2023-03-12T19:58:34.620Z,8.20
2023-03-12T20:01:20.055Z,8.10
2023-03-12T20:03:47.190Z,8.20
2023-03-12T20:06:14.048Z,8.20
2023-03-12T20:08:41.077Z,8.20
2023-03-12T20:11:11.144Z,8.20
2023-03-12T20:13:43.868Z,8.30
2023-03-12T20:16:13.373Z,8.20
2023-03-12T20:18:40.339Z,8.30
2023-03-12T20:21:07.513Z,8.40
2023-03-12T20:23:37.276Z,8.40
2023-03-12T20:26:04.454Z,8.30
2023-03-12T20:28:31.601Z,8.40
2023-03-12T20:31:06.144Z,8.40
2023-03-12T20:33:33.217Z,8.40
2023-03-12T20:36:00.126Z,8.40
2023-03-12T20:38:27.125Z,8.30
2023-03-12T20:40:53.904Z,8.40
2023-03-12T20:43:20.819Z,8.30
2023-03-12T20:45:48.770Z,8.40
2023-03-12T20:48:15.710Z,8.30
2023-03-12T20:50:42.624Z,8.40
2023-03-12T20:53:10.400Z,8.40
2023-03-12T20:55:40.496Z,8.30
2023-03-12T20:58:08.129Z,8.40
2023-03-12T21:00:35.741Z,8.40
2023-03-12T21:03:02.632Z,8.40
2023-03-12T21:05:29.731Z,8.40
2023-03-12T21:07:58.453Z,8.40
2023-03-12T21:10:25.536Z,8.50
2023-03-12T21:12:52.444Z,8.40
2023-03-12T21:15:19.530Z,8.40
2023-03-12T21:17:52.482Z,8.40
2023-03-12T21:20:19.737Z,8.40
2023-03-12T21:22:47.457Z,8.60
2023-03-12T21:25:14.571Z,8.50
2023-03-12T21:27:50.480Z,8.60
2023-03-12T21:30:18.867Z,8.60
2023-03-12T21:32:45.887Z,8.60
2023-03-12T21:35:12.900Z,8.60
2023-03-12T21:37:40.371Z,8.70
2023-03-12T21:40:09.280Z,8.70
2023-03-12T21:42:36.127Z,8.80
2023-03-12T21:45:03.385Z,8.80
2023-03-12T21:47:30.535Z,8.80
2023-03-12T21:49:57.397Z,8.80
2023-03-12T21:52:24.262Z,8.80
2023-03-12T21:54:51.239Z,8.80
2023-03-12T21:57:18.021Z,8.80
2023-03-12T21:59:44.959Z,8.80
2023-03-12T22:02:13.390Z,8.80
2023-03-12T22:04:40.267Z,8.80
2023-03-12T22:07:07.342Z,8.80
2023-03-12T22:09:34.416Z,8.70
2023-03-12T22:12:01.845Z,8.80
2023-03-12T22:14:29.084Z,8.80
2023-03-12T22:16:55.975Z,8.70
2023-03-12T22:19:24.410Z,8.80
2023-03-12T22:21:51.366Z,8.80
2023-03-12T22:24:18.120Z,8.80
2023-03-12T22:26:46.114Z,8.70
2023-03-12T22:29:13.107Z,8.70
2023-03-12T22:31:40.129Z,8.80
2023-03-12T22:34:07.002Z,8.80
2023-03-12T22:36:34.174Z,8.70
2023-03-12T22:39:01.065Z,8.70
2023-03-12T22:41:30.053Z,8.70
2023-03-12T22:44:01.906Z,8.70
2023-03-12T22:46:29.254Z,8.70
2023-03-12T22:49:01.682Z,8.70
2023-03-12T22:51:30.893Z,8.70
2023-03-12T22:53:57.981Z,8.70
2023-03-12T22:56:25.087Z,8.70
2023-03-12T22:58:52.434Z,8.70
2023-03-12T23:01:21.473Z,8.70
2023-03-12T23:03:49.395Z,8.70
2023-03-12T23:06:24.388Z,8.80
2023-03-12T23:08:52.091Z,8.90
2023-03-12T23:11:21.081Z,8.70
2023-03-12T23:13:49.928Z,8.90
2023-03-12T23:16:22.637Z,8.90
2023-03-12T23:18:50.158Z,8.80
2023-03-12T23:21:20.119Z,8.80
2023-03-12T23:23:48.252Z,8.90
2023-03-12T23:26:18.168Z,8.90
2023-03-12T23:28:47.296Z,8.90
2023-03-12T23:31:16.254Z,8.90
2023-03-12T23:33:43.885Z,8.90
2023-03-12T23:36:19.448Z,8.90
2023-03-12T23:38:47.673Z,8.90
2023-03-12T23:41:15.742Z,9.00
2023-03-12T23:43:42.998Z,8.90
2023-03-12T23:46:11.267Z,9.00
2023-03-12T23:48:39.284Z,9.00
2023-03-12T23:51:13.458Z,9.00
2023-03-12T23:53:43.592Z,9.00
2023-03-12T23:56:14.706Z,9.00
2023-03-12T23:58:42.038Z,8.90
